ADDS METAR Data INFO
IDs: Format: Raw Decoded Include TAF

Data at: 0750 UTC 20 Feb 2018

KF44 200735Z AUTO 17017G21KT 10SM BKN022 BKN031 OVC043 20/16 A2989 RMK AO2
KF44 200715Z AUTO 17015G21KT 10SM SCT022 BKN042 OVC048 20/16 A2990 RMK AO2
KF44 200655Z AUTO 17014G19KT 10SM SCT022 OVC048 20/17 A2990 RMK AO2
KF44 200635Z AUTO 17016G25KT 10SM SCT019 SCT045 BKN060 20/17 A2989 RMK AO2
KF44 200615Z AUTO 17014G24KT 10SM BKN019 BKN046 BKN110 20/17 A2989 RMK AO2
KF44 200555Z AUTO 17015G19KT 10SM OVC019 20/17 A2990 RMK AO2
KF44 200535Z AUTO 17014G23KT 10SM BKN019 20/17 A2989 RMK AO2
KF44 200515Z AUTO 16016G25KT 10SM BKN019 20/17 A2987 RMK AO2
KF44 200455Z AUTO 15015G24KT 10SM OVC019 20/17 A2988 RMK AO2
KF44 200435Z AUTO 16017G25KT 10SM OVC019 20/17 A2988 RMK AO2
KF44 200415Z AUTO 15015G21KT 10SM OVC019 20/16 A2987 RMK AO2
KF44 200355Z AUTO 16010G16KT 10SM OVC021 20/16 A2990 RMK AO2
KF44 200335Z AUTO 18014G19KT 10SM BKN023 OVC027 20/16 A2990 RMK AO2
KF44 200315Z AUTO 17013G18KT 10SM BKN025 OVC034 20/15 A2990 RMK AO2
KF44 200255Z AUTO 17010G19KT 10SM OVC029 20/15 A2989 RMK AO2 LTG DSNT W
KF44 200235Z AUTO 16013G17KT 10SM BKN033 OVC042 20/15 A2989 RMK AO2
KF44 200215Z AUTO 18010G18KT 10SM SCT042 OVC060 20/14 A2989 RMK AO2
KF44 200155Z AUTO 18013G16KT 10SM BKN060 20/14 A2988 RMK AO2
KF44 200135Z AUTO 16012G18KT 10SM SCT060 20/15 A2987 RMK AO2
KF44 200115Z AUTO 16012G22KT 10SM CLR 21/15 A2985 RMK AO2
KF44 200055Z AUTO 15013G20KT 10SM CLR 21/15 A2983 RMK AO2
KF44 200035Z AUTO 15011G22KT 10SM CLR 21/15 A2984 RMK AO2
KF44 200015Z AUTO 15013G19KT 10SM SCT041 BKN050 22/15 A2985 RMK AO2
KF44 192355Z AUTO 17014G19KT 10SM BKN043 OVC050 22/15 A2986 RMK AO2
KF44 192335Z AUTO 17013G19KT 10SM OVC045 23/15 A2986 RMK AO2
KF44 192315Z AUTO 18015G27KT 10SM BKN043 OVC050 23/14 A2986 RMK AO2
KF44 192255Z AUTO 17016KT 10SM BKN043 BKN050 OVC065 23/15 A2984 RMK AO2
KF44 192235Z AUTO 18016G23KT 10SM BKN048 OVC055 23/15 A2984 RMK AO2
KF44 192215Z AUTO 18018G27KT 10SM SCT041 BKN047 OVC070 23/15 A2984 RMK AO2
KF44 192155Z AUTO 17013G22KT 10SM BKN047 OVC075 23/15 A2984 RMK AO2
KF44 192135Z AUTO 17017G25KT 10SM BKN047 BKN055 OVC075 23/15 A2984 RMK AO2
KF44 192115Z AUTO 17012G21KT 10SM BKN047 BKN060 OVC075 23/15 A2984 RMK AO2
KF44 192055Z AUTO 17013G18KT 10SM SCT042 BKN050 OVC060 23/15 A2984 RMK AO2
KF44 192035Z AUTO 18012G26KT 10SM SCT044 BKN050 OVC060 23/14 A2985 RMK AO2
KF44 192015Z AUTO 19016G29KT 10SM SCT043 BKN050 OVC055 24/14 A2986 RMK AO2
KF44 191955Z AUTO 18016G25KT 10SM BKN043 BKN050 24/14 A2986 RMK AO2
KF44 191935Z AUTO 17017G28KT 10SM BKN043 BKN050 24/14 A2986 RMK AO2
KF44 191915Z AUTO 18021G33KT 160V220 10SM BKN039 BKN046 BKN050 24/14 A2987 RMK AO2
KF44 191855Z AUTO 18021G26KT 10SM BKN038 BKN045 23/15 A2988 RMK AO2
KF44 191835Z AUTO 18015G26KT 10SM SCT029 SCT036 BKN042 23/15 A2988 RMK AO2
KF44 191815Z AUTO 17014G22KT 10SM SCT027 SCT031 SCT042 22/16 A2989 RMK AO2
KF44 191755Z AUTO 19017G23KT 10SM BKN025 BKN029 22/16 A2991 RMK AO2
KF44 191735Z AUTO 18021G28KT 10SM BKN025 OVC030 22/16 A2991 RMK AO2
KF44 191715Z AUTO 17017G25KT 10SM OVC023 21/16 A2991 RMK AO2
KF44 191655Z AUTO 18018G24KT 10SM OVC023 21/16 A2992 RMK AO2
KF44 191635Z AUTO 18014G28KT 10SM OVC021 20/16 A2992 RMK AO2
KF44 191615Z AUTO 17018G24KT 10SM OVC021 21/16 A2992 RMK AO2
KF44 191555Z AUTO 17016G24KT 10SM OVC019 20/16 A2992 RMK AO2
KF44 191535Z AUTO 18015G24KT 10SM OVC017 20/16 A2992 RMK AO2
KF44 191515Z AUTO 18017G24KT 10SM OVC015 20/16 A2992 RMK AO2
KF44 191455Z AUTO 17015G21KT 10SM OVC015 19/16 A2993 RMK AO2
KF44 191435Z AUTO 17013G18KT 10SM OVC015 18/16 A2993 RMK AO2
KF44 191415Z AUTO 17012G18KT 10SM OVC015 18/16 A2993 RMK AO2
KF44 191355Z AUTO 17013G17KT 10SM BKN017 OVC023 17/16 A2993 RMK AO2
KF44 191335Z AUTO 17012G17KT 10SM BKN015 OVC021 17/16 A2992 RMK AO2
KF44 191315Z AUTO 16009KT 10SM OVC015 17/16 A2993 RMK AO2
KF44 191255Z AUTO 17007G14KT 10SM BKN015 OVC022 17/16 A2993 RMK AO2
KF44 191235Z AUTO 16012KT 10SM BKN015 BKN022 OVC043 17/16 A2993 RMK AO2
KF44 191215Z AUTO 16008KT 10SM BKN015 OVC039 17/16 A2993 RMK AO2
KF44 191155Z AUTO 16010G16KT 10SM BKN015 OVC020 17/16 A2993 RMK AO2 LTG DSNT N
KF44 191135Z AUTO 18009G15KT 10SM OVC015 17/16 A2994 RMK AO2
KF44 191115Z AUTO 17011G16KT 10SM OVC017 17/15 A2993 RMK AO2
KF44 191055Z AUTO 17010G14KT 10SM BKN017 OVC021 17/15 A2993 RMK AO2
KF44 191035Z AUTO 17010G15KT 10SM BKN017 OVC022 17/15 A2993 RMK AO2
KF44 191015Z AUTO 18010G18KT 10SM BKN017 OVC024 17/15 A2993 RMK AO2
KF44 190955Z AUTO 17015G20KT 10SM BKN017 OVC026 17/15 A2992 RMK AO2
KF44 190935Z AUTO 17011G17KT 10SM BKN017 OVC028 17/15 A2992 RMK AO2
KF44 190915Z AUTO 16011G17KT 10SM BKN020 OVC029 17/15 A2991 RMK AO2
KF44 190855Z AUTO 17012G20KT 10SM SCT018 SCT023 OVC031 17/15 A2992 RMK AO2
KF44 190835Z AUTO 17015G21KT 10SM SCT020 OVC031 17/15 A2992 RMK AO2
KF44 190815Z AUTO 16013G21KT 10SM BKN018 OVC029 17/15 A2992 RMK AO2
KF44 190755Z AUTO 17012G16KT 10SM OVC018 17/15 A2993 RMK AO2
KF44 190735Z AUTO 18014G21KT 10SM OVC020 18/15 A2993 RMK AO2
KF44 190715Z AUTO 17010G17KT 10SM OVC018 17/15 A2992 RMK AO2
KF44 190655Z AUTO 17016G21KT 10SM OVC016 17/15 A2992 RMK AO2 LTG DSNT NW
KF44 190635Z AUTO 17011G17KT 10SM OVC016 17/15 A2993 RMK AO2 LTG DSNT W
KF44 190615Z AUTO 17012G18KT 10SM OVC016 18/16 A2992 RMK AO2 LTG DSNT NW
KF44 190555Z AUTO 17012G21KT 10SM OVC016 18/16 A2992 RMK AO2
KF44 190535Z AUTO 17015G18KT 10SM OVC018 18/16 A2993 RMK AO2 LTG DSNT W
KF44 190515Z AUTO 17015G19KT 10SM OVC018 18/16 A2993 RMK AO2 LTG DSNT NW
KF44 190455Z AUTO 17015G21KT 10SM OVC018 18/16 A2993 RMK AO2 LTG DSNT W
KF44 190435Z AUTO 17016G23KT 10SM OVC020 18/16 A2993 RMK AO2
KF44 190415Z AUTO 17013G19KT 10SM BKN020 BKN027 18/16 A2994 RMK AO2
KF44 190355Z AUTO 17013G21KT 10SM SCT020 SCT027 18/16 A2993 RMK AO2
KF44 190335Z AUTO 17012G17KT 10SM CLR 18/16 A2994 RMK AO2
KF44 190315Z AUTO 17012G18KT 10SM CLR 18/16 A2993 RMK AO2
KF44 190255Z AUTO 16009KT 10SM CLR 17/16 A2993 RMK AO2
KF44 190235Z AUTO 16007KT 10SM CLR 17/16 A2992 RMK AO2
KF44 190215Z AUTO 16009G14KT 10SM CLR 17/16 A2992 RMK AO2
KF44 190155Z AUTO 16010KT 10SM CLR 17/16 A2992 RMK AO2
KF44 190135Z AUTO 16008KT 10SM CLR 16/16 A2992 RMK AO2
KF44 190115Z AUTO 16006KT 10SM CLR 15/15 A2992 RMK AO2
KF44 190055Z AUTO 14003KT 10SM CLR 15/15 A2992 RMK AO2
KF44 190035Z AUTO 00000KT 10SM SCT016 SCT023 15/15 A2992 RMK AO2
KF44 190015Z AUTO 14004KT 10SM CLR 15/15 A2992 RMK AO2
KF44 182355Z AUTO 14005KT 10SM SCT005 SCT011 15/15 A2993 RMK AO2
KF44 182335Z AUTO 15006KT 10SM BKN005 15/15 A2993 RMK AO2
KF44 182315Z AUTO 16005KT 10SM BKN005 OVC012 15/15 A2994 RMK AO2
KF44 182255Z AUTO 14007KT 10SM SCT005 OVC012 15/15 A2994 RMK AO2
KF44 182235Z AUTO 15005KT 10SM OVC005 15/15 A2996 RMK AO2
KF44 182215Z AUTO 14005KT 10SM OVC005 14/14 A2998 RMK AO2
KF44 182155Z AUTO 13004KT 10SM OVC003 14/14 A2999 RMK AO2
KF44 182135Z AUTO 14006KT 7SM OVC003 13/13 A3000 RMK AO2
KF44 182115Z AUTO 14004KT 7SM OVC003 13/13 A3001 RMK AO2
KF44 182055Z AUTO 14005KT 7SM OVC003 13/13 A3001 RMK AO2
KF44 182035Z AUTO 13004KT 7SM OVC003 12/12 A3003 RMK AO2
KF44 182015Z AUTO 14005KT 7SM OVC003 12/12 A3004 RMK AO2
KF44 181955Z AUTO 13003KT 3SM BR OVC003 12/12 A3004 RMK AO2